• Join FlightAware (Why Join?)
  • Login
  • US Flag 
04:13AM EDT


 

Airport Tracker/Info


-or-


 

Live Flight TrackerFlight Track Log ✈ DAL3759 ✈ 16-Nov-2013 ✈ KDTW - KFWA

Flight Track Log - Related Links

Times and Time Zones

All times are in EST time to prevent confusion due to time zone crossing. See the DAL3759 flight status page for this flight to view local times or setup timezone preferences in your user account.

Time Position Orientation Groundspeed Altitude Reporting Facility
EST Latitude Longitude Course Direction KTS MPH feet Rate Location/Type
02:09PM 42.2106 -83.3650 215° Southwest 151 174 1,200  Level Cleveland Center
02:11PM 42.1583 -83.4139 215° Southwest 199 229 3,800 2,220 Climbing Cleveland Center
02:12PM 42.1058 -83.4589 212° Southwest 225 259 6,500 2,700 Climbing Cleveland Center
02:13PM 42.0450 -83.5025 208° Southwest 243 280 9,400 2,580 Climbing Cleveland Center
02:14PM 41.9808 -83.5500 209° Southwest 256 295 11,900 1,200 Climbing Cleveland Center
02:15PM 41.9025 -83.6133 211° Southwest 308 354 12,000  Climbing Cleveland Center
02:16PM 41.8247 -83.6761 211° Southwest 326 375 12,000  Level Cleveland Center
02:17PM 41.7469 -83.7419 212° Southwest 330 380 12,000  Level Cleveland Center
02:18PM 41.6678 -83.8069 212° Southwest 333 383 12,000 -60 Level Cleveland Center
02:19PM 41.5881 -83.8706 211° Southwest 334 384 11,900 -540 Descending Cleveland Center
02:20PM 41.5069 -83.9344 211° Southwest 337 388 11,000 -480 Descending Cleveland Center
02:21PM 41.4272 -83.9961 210° Southwest 333 383 11,000  Level Cleveland Center
02:22PM 41.3375 -84.0658 210° Southwest 330 380 11,000  Level Cleveland Center
02:23PM 41.2589 -84.1272 210° Southwest 328 377 11,000  Level Cleveland Center
02:24PM 41.2183 -84.2239 241° Southwest 324 373 11,000  Level Cleveland Center
02:25PM 41.1975 -84.3403 257° West 325 374 11,000  Level Chicago Center
02:26PM 41.1689 -84.4528 251° West 322 371 11,000  Level Chicago Center
02:27PM 41.1342 -84.5878 251° West 322 371 11,000 -480 Level Chicago Center
02:28PM 41.1069 -84.6900 251° West 310 357 10,100 -1,320 Descending Chicago Center
02:29PM 41.0858 -84.7758 252° West 273 314 8,400 -1,680 Descending Chicago Center
02:30PM 41.0969 -84.8669 279° West 267 307 6,700 -1,680 Descending Chicago Center
02:31PM 41.1014 -84.9539 274° West 253 291 5,000 -1,680 Descending Chicago Center
02:32PM 41.0889 -85.0364 259° West 240 276 3,300 -1,200 Descending Chicago Center
02:33PM 41.0800 -85.1164 262° West 229 264 2,600 -360 Descending Chicago Center
02:34PM 41.0942 -85.1911 284° West 217 250 2,600  Level Chicago Center
02:35PM 41.1100 -85.2792 283° West 211 243 2,600  Level Chicago Center
02:36PM 41.0792 -85.3014 209° Southwest 177 204 2,600 -180 Level Chicago Center
02:37PM 41.0442 -85.2700 146° Southeast 163 188 2,300 -480 Descending Chicago Center
02:38PM 41.0150 -85.2342 137° Southeast 147 169 1,700 -600 Descending Chicago Center